sensor_id;sensor_type;location;lat;lon;timestamp;temperature;humidity
4461;DHT22;2243;48.812;9.232;2023-08-07T00:01:13;13.00;99.90
4461;DHT22;2243;48.812;9.232;2023-08-07T00:03:44;13.00;99.90
4461;DHT22;2243;48.812;9.232;2023-08-07T00:06:15;13.00;99.90
4461;DHT22;2243;48.812;9.232;2023-08-07T00:08:46;13.10;99.90
4461;DHT22;2243;48.812;9.232;2023-08-07T00:11:17;13.10;99.90
4461;DHT22;2243;48.812;9.232;2023-08-07T00:13:48;13.10;99.90
4461;DHT22;2243;48.812;9.232;2023-08-07T00:16:19;13.20;99.90
4461;DHT22;2243;48.812;9.232;2023-08-07T00:18:50;13.20;99.90
4461;DHT22;2243;48.812;9.232;2023-08-07T00:21:23;13.20;99.90
4461;DHT22;2243;48.812;9.232;2023-08-07T00:23:54;13.20;99.90
4461;DHT22;2243;48.812;9.232;2023-08-07T00:26:25;13.20;99.90
4461;DHT22;2243;48.812;9.232;2023-08-07T00:28:56;13.20;99.90
4461;DHT22;2243;48.812;9.232;2023-08-07T00:31:27;13.20;99.90
4461;DHT22;2243;48.812;9.232;2023-08-07T00:34:02;13.20;99.90
4461;DHT22;2243;48.812;9.232;2023-08-07T00:36:34;13.20;99.90
4461;DHT22;2243;48.812;9.232;2023-08-07T00:39:06;13.10;99.90
4461;DHT22;2243;48.812;9.232;2023-08-07T00:41:38;13.10;99.90
4461;DHT22;2243;48.812;9.232;2023-08-07T00:44:09;13.10;99.90
4461;DHT22;2243;48.812;9.232;2023-08-07T00:46:40;13.20;99.90
4461;DHT22;2243;48.812;9.232;2023-08-07T00:49:13;13.20;99.90
4461;DHT22;2243;48.812;9.232;2023-08-07T00:51:44;13.10;99.90
4461;DHT22;2243;48.812;9.232;2023-08-07T00:54:18;13.10;99.90
4461;DHT22;2243;48.812;9.232;2023-08-07T00:56:50;13.10;99.90
4461;DHT22;2243;48.812;9.232;2023-08-07T00:59:21;13.20;99.90
4461;DHT22;2243;48.812;9.232;2023-08-07T01:01:52;13.20;99.90
4461;DHT22;2243;48.812;9.232;2023-08-07T01:04:23;13.20;99.90
4461;DHT22;2243;48.812;9.232;2023-08-07T01:06:54;13.20;99.90
4461;DHT22;2243;48.812;9.232;2023-08-07T01:09:26;13.20;99.90
4461;DHT22;2243;48.812;9.232;2023-08-07T01:12:25;13.20;99.90
4461;DHT22;2243;48.812;9.232;2023-08-07T01:15:02;13.20;99.90
4461;DHT22;2243;48.812;9.232;2023-08-07T01:17:39;13.20;99.90
4461;DHT22;2243;48.812;9.232;2023-08-07T01:20:12;13.20;99.90
4461;DHT22;2243;48.812;9.232;2023-08-07T01:22:44;13.20;99.90
4461;DHT22;2243;48.812;9.232;2023-08-07T01:25:15;13.20;99.90
4461;DHT22;2243;48.812;9.232;2023-08-07T01:28:00;13.20;99.90
4461;DHT22;2243;48.812;9.232;2023-08-07T01:30:36;13.20;99.90
4461;DHT22;2243;48.812;9.232;2023-08-07T01:33:29;13.20;99.90
4461;DHT22;2243;48.812;9.232;2023-08-07T01:36:05;13.30;99.90
4461;DHT22;2243;48.812;9.232;2023-08-07T01:38:37;13.30;99.90
4461;DHT22;2243;48.812;9.232;2023-08-07T01:41:09;13.20;99.90
4461;DHT22;2243;48.812;9.232;2023-08-07T01:43:40;13.20;99.90
4461;DHT22;2243;48.812;9.232;2023-08-07T01:46:11;13.20;99.90
4461;DHT22;2243;48.812;9.232;2023-08-07T01:48:42;13.30;99.90
4461;DHT22;2243;48.812;9.232;2023-08-07T01:51:13;13.30;99.90
4461;DHT22;2243;48.812;9.232;2023-08-07T01:53:44;13.30;99.90
4461;DHT22;2243;48.812;9.232;2023-08-07T01:56:15;13.30;99.90
4461;DHT22;2243;48.812;9.232;2023-08-07T01:58:46;13.30;99.90
4461;DHT22;2243;48.812;9.232;2023-08-07T02:01:17;13.40;99.90
4461;DHT22;2243;48.812;9.232;2023-08-07T02:03:48;13.30;99.90
4461;DHT22;2243;48.812;9.232;2023-08-07T02:06:19;13.30;99.90
4461;DHT22;2243;48.812;9.232;2023-08-07T02:08:50;13.30;99.90
4461;DHT22;2243;48.812;9.232;2023-08-07T02:11:21;13.30;99.90
4461;DHT22;2243;48.812;9.232;2023-08-07T02:13:52;13.30;99.90
4461;DHT22;2243;48.812;9.232;2023-08-07T02:16:23;13.30;99.90
4461;DHT22;2243;48.812;9.232;2023-08-07T02:18:54;13.30;99.90
4461;DHT22;2243;48.812;9.232;2023-08-07T02:21:25;13.30;99.90
4461;DHT22;2243;48.812;9.232;2023-08-07T02:23:56;13.40;99.90
4461;DHT22;2243;48.812;9.232;2023-08-07T02:26:27;13.40;99.90
4461;DHT22;2243;48.812;9.232;2023-08-07T02:28:58;13.40;99.90
4461;DHT22;2243;48.812;9.232;2023-08-07T02:31:28;13.40;99.90
4461;DHT22;2243;48.812;9.232;2023-08-07T02:33:59;13.30;99.90
4461;DHT22;2243;48.812;9.232;2023-08-07T02:36:30;13.30;99.90
4461;DHT22;2243;48.812;9.232;2023-08-07T02:39:02;13.20;99.90
4461;DHT22;2243;48.812;9.232;2023-08-07T02:41:33;13.20;99.90
4461;DHT22;2243;48.812;9.232;2023-08-07T02:44:04;13.20;99.90
4461;DHT22;2243;48.812;9.232;2023-08-07T02:46:35;13.20;99.90
4461;DHT22;2243;48.812;9.232;2023-08-07T02:49:06;13.20;99.90
4461;DHT22;2243;48.812;9.232;2023-08-07T02:51:37;13.20;99.90
4461;DHT22;2243;48.812;9.232;2023-08-07T02:54:08;13.20;99.90
4461;DHT22;2243;48.812;9.232;2023-08-07T02:56:41;13.20;99.90
4461;DHT22;2243;48.812;9.232;2023-08-07T02:59:12;13.20;99.90
4461;DHT22;2243;48.812;9.232;2023-08-07T03:01:43;13.20;99.90
4461;DHT22;2243;48.812;9.232;2023-08-07T03:04:15;13.20;99.90
4461;DHT22;2243;48.812;9.232;2023-08-07T03:06:46;13.20;99.90
4461;DHT22;2243;48.812;9.232;2023-08-07T03:09:17;13.20;99.90
4461;DHT22;2243;48.812;9.232;2023-08-07T03:11:48;13.20;99.90
4461;DHT22;2243;48.812;9.232;2023-08-07T03:14:19;13.20;99.90
4461;DHT22;2243;48.812;9.232;2023-08-07T03:16:50;13.20;99.90
4461;DHT22;2243;48.812;9.232;2023-08-07T03:19:21;13.20;99.90
4461;DHT22;2243;48.812;9.232;2023-08-07T03:21:52;13.20;99.90
4461;DHT22;2243;48.812;9.232;2023-08-07T03:24:23;13.20;99.90
4461;DHT22;2243;48.812;9.232;2023-08-07T03:26:54;13.20;99.90
4461;DHT22;2243;48.812;9.232;2023-08-07T03:29:25;13.20;99.90
4461;DHT22;2243;48.812;9.232;2023-08-07T03:31:56;13.20;99.90
4461;DHT22;2243;48.812;9.232;2023-08-07T03:34:27;13.20;99.90
4461;DHT22;2243;48.812;9.232;2023-08-07T03:36:58;13.20;99.90
4461;DHT22;2243;48.812;9.232;2023-08-07T03:39:30;13.20;99.90
4461;DHT22;2243;48.812;9.232;2023-08-07T03:42:01;13.20;99.90
4461;DHT22;2243;48.812;9.232;2023-08-07T03:44:32;13.20;99.90
4461;DHT22;2243;48.812;9.232;2023-08-07T03:47:05;13.20;99.90
4461;DHT22;2243;48.812;9.232;2023-08-07T03:49:36;13.30;99.90
4461;DHT22;2243;48.812;9.232;2023-08-07T03:52:07;13.30;99.90
4461;DHT22;2243;48.812;9.232;2023-08-07T03:54:38;13.30;99.90
4461;DHT22;2243;48.812;9.232;2023-08-07T03:57:09;13.20;99.90
4461;DHT22;2243;48.812;9.232;2023-08-07T03:59:41;13.30;99.90
4461;DHT22;2243;48.812;9.232;2023-08-07T04:02:12;13.20;99.90
4461;DHT22;2243;48.812;9.232;2023-08-07T04:04:43;13.30;99.90
4461;DHT22;2243;48.812;9.232;2023-08-07T04:07:14;13.30;99.90
4461;DHT22;2243;48.812;9.232;2023-08-07T04:09:45;13.20;99.90
4461;DHT22;2243;48.812;9.232;2023-08-07T04:12:16;13.30;99.90
4461;DHT22;2243;48.812;9.232;2023-08-07T04:14:47;13.30;99.90
4461;DHT22;2243;48.812;9.232;2023-08-07T04:17:18;13.40;99.90
4461;DHT22;2243;48.812;9.232;2023-08-07T04:19:48;13.30;99.90
4461;DHT22;2243;48.812;9.232;2023-08-07T04:22:19;13.30;99.90
4461;DHT22;2243;48.812;9.232;2023-08-07T04:24:50;13.30;99.90
4461;DHT22;2243;48.812;9.232;2023-08-07T04:27:21;13.30;99.90
4461;DHT22;2243;48.812;9.232;2023-08-07T04:29:52;13.30;99.90
4461;DHT22;2243;48.812;9.232;2023-08-07T04:32:23;13.30;99.90
4461;DHT22;2243;48.812;9.232;2023-08-07T04:34:56;13.30;99.90
4461;DHT22;2243;48.812;9.232;2023-08-07T04:37:27;13.30;99.90
4461;DHT22;2243;48.812;9.232;2023-08-07T04:39:58;13.40;99.90
4461;DHT22;2243;48.812;9.232;2023-08-07T04:42:31;13.40;99.90
4461;DHT22;2243;48.812;9.232;2023-08-07T04:45:03;13.40;99.90
4461;DHT22;2243;48.812;9.232;2023-08-07T04:47:34;13.40;99.90
4461;DHT22;2243;48.812;9.232;2023-08-07T04:50:06;13.30;99.90
4461;DHT22;2243;48.812;9.232;2023-08-07T04:52:38;13.40;99.90
4461;DHT22;2243;48.812;9.232;2023-08-07T04:55:09;13.40;99.90
4461;DHT22;2243;48.812;9.232;2023-08-07T04:57:40;13.40;99.90
4461;DHT22;2243;48.812;9.232;2023-08-07T05:00:12;13.40;99.90
4461;DHT22;2243;48.812;9.232;2023-08-07T05:02:47;13.40;99.90
4461;DHT22;2243;48.812;9.232;2023-08-07T05:05:21;13.40;99.90
4461;DHT22;2243;48.812;9.232;2023-08-07T05:07:55;13.40;99.90
4461;DHT22;2243;48.812;9.232;2023-08-07T05:10:26;13.40;99.90
4461;DHT22;2243;48.812;9.232;2023-08-07T05:12:57;13.50;99.90
4461;DHT22;2243;48.812;9.232;2023-08-07T05:15:28;13.40;99.90
4461;DHT22;2243;48.812;9.232;2023-08-07T05:18:01;13.50;99.90
4461;DHT22;2243;48.812;9.232;2023-08-07T05:20:32;13.60;99.90
4461;DHT22;2243;48.812;9.232;2023-08-07T05:23:03;13.60;99.90
4461;DHT22;2243;48.812;9.232;2023-08-07T05:25:34;13.60;99.90
4461;DHT22;2243;48.812;9.232;2023-08-07T05:28:05;13.60;99.90
4461;DHT22;2243;48.812;9.232;2023-08-07T05:30:36;13.70;99.90
4461;DHT22;2243;48.812;9.232;2023-08-07T05:33:07;13.60;99.90
4461;DHT22;2243;48.812;9.232;2023-08-07T05:35:38;13.70;99.90
4461;DHT22;2243;48.812;9.232;2023-08-07T05:38:09;13.70;99.90
4461;DHT22;2243;48.812;9.232;2023-08-07T05:40:40;13.70;99.90
4461;DHT22;2243;48.812;9.232;2023-08-07T05:43:11;13.70;99.90
4461;DHT22;2243;48.812;9.232;2023-08-07T05:45:43;13.80;99.90
4461;DHT22;2243;48.812;9.232;2023-08-07T05:48:15;13.80;99.90
4461;DHT22;2243;48.812;9.232;2023-08-07T05:50:46;13.80;99.90
4461;DHT22;2243;48.812;9.232;2023-08-07T05:53:17;13.80;99.90
4461;DHT22;2243;48.812;9.232;2023-08-07T05:55:49;13.80;99.90
4461;DHT22;2243;48.812;9.232;2023-08-07T05:58:20;13.80;99.90
4461;DHT22;2243;48.812;9.232;2023-08-07T06:00:51;13.80;99.90
4461;DHT22;2243;48.812;9.232;2023-08-07T06:03:22;13.80;99.90
4461;DHT22;2243;48.812;9.232;2023-08-07T06:05:53;13.80;99.90
4461;DHT22;2243;48.812;9.232;2023-08-07T06:08:24;13.90;99.90
4461;DHT22;2243;48.812;9.232;2023-08-07T06:10:55;13.90;99.90
4461;DHT22;2243;48.812;9.232;2023-08-07T06:13:26;13.90;99.90
4461;DHT22;2243;48.812;9.232;2023-08-07T06:16:06;14.00;99.90
4461;DHT22;2243;48.812;9.232;2023-08-07T06:18:37;14.00;99.90
4461;DHT22;2243;48.812;9.232;2023-08-07T06:21:08;14.00;99.90
4461;DHT22;2243;48.812;9.232;2023-08-07T06:23:41;14.10;99.90
4461;DHT22;2243;48.812;9.232;2023-08-07T06:26:13;14.10;99.90
4461;DHT22;2243;48.812;9.232;2023-08-07T06:28:44;14.10;99.90
4461;DHT22;2243;48.812;9.232;2023-08-07T06:31:15;14.10;99.90
4461;DHT22;2243;48.812;9.232;2023-08-07T06:33:47;14.10;99.90
4461;DHT22;2243;48.812;9.232;2023-08-07T06:36:18;14.10;99.90
4461;DHT22;2243;48.812;9.232;2023-08-07T06:38:49;14.10;99.90
4461;DHT22;2243;48.812;9.232;2023-08-07T06:41:20;14.10;99.90
4461;DHT22;2243;48.812;9.232;2023-08-07T06:43:51;14.20;99.90
4461;DHT22;2243;48.812;9.232;2023-08-07T06:46:22;14.30;99.90
4461;DHT22;2243;48.812;9.232;2023-08-07T06:48:57;14.30;99.90
4461;DHT22;2243;48.812;9.232;2023-08-07T06:51:28;14.40;99.90
4461;DHT22;2243;48.812;9.232;2023-08-07T06:53:59;14.40;99.90
4461;DHT22;2243;48.812;9.232;2023-08-07T06:56:30;14.40;99.90
4461;DHT22;2243;48.812;9.232;2023-08-07T06:59:01;14.40;99.90
4461;DHT22;2243;48.812;9.232;2023-08-07T07:01:32;14.50;99.90
4461;DHT22;2243;48.812;9.232;2023-08-07T07:04:03;14.50;99.90
4461;DHT22;2243;48.812;9.232;2023-08-07T07:06:36;14.40;99.90
4461;DHT22;2243;48.812;9.232;2023-08-07T07:09:08;14.50;99.90
4461;DHT22;2243;48.812;9.232;2023-08-07T07:11:39;14.50;99.90
4461;DHT22;2243;48.812;9.232;2023-08-07T07:14:10;14.60;99.90
4461;DHT22;2243;48.812;9.232;2023-08-07T07:16:41;14.60;99.90
4461;DHT22;2243;48.812;9.232;2023-08-07T07:19:13;14.70;99.90
4461;DHT22;2243;48.812;9.232;2023-08-07T07:21:44;14.80;99.90
4461;DHT22;2243;48.812;9.232;2023-08-07T07:24:16;14.90;99.90
4461;DHT22;2243;48.812;9.232;2023-08-07T07:26:47;15.00;99.90
4461;DHT22;2243;48.812;9.232;2023-08-07T07:29:18;15.00;99.90
4461;DHT22;2243;48.812;9.232;2023-08-07T07:31:50;14.90;99.90
4461;DHT22;2243;48.812;9.232;2023-08-07T07:34:21;14.90;99.90
4461;DHT22;2243;48.812;9.232;2023-08-07T07:36:52;14.90;99.90
4461;DHT22;2243;48.812;9.232;2023-08-07T07:39:24;14.90;99.90
4461;DHT22;2243;48.812;9.232;2023-08-07T07:41:55;14.90;99.90
4461;DHT22;2243;48.812;9.232;2023-08-07T07:44:27;14.90;99.90
4461;DHT22;2243;48.812;9.232;2023-08-07T07:46:58;14.90;99.90
4461;DHT22;2243;48.812;9.232;2023-08-07T07:49:29;14.90;99.90
4461;DHT22;2243;48.812;9.232;2023-08-07T07:52:00;15.00;99.90
4461;DHT22;2243;48.812;9.232;2023-08-07T07:54:31;15.00;99.90
4461;DHT22;2243;48.812;9.232;2023-08-07T07:57:02;15.10;99.90
4461;DHT22;2243;48.812;9.232;2023-08-07T07:59:34;15.10;99.90
4461;DHT22;2243;48.812;9.232;2023-08-07T08:02:05;15.30;99.90
4461;DHT22;2243;48.812;9.232;2023-08-07T08:04:36;15.30;99.90
4461;DHT22;2243;48.812;9.232;2023-08-07T08:07:07;15.30;99.90
4461;DHT22;2243;48.812;9.232;2023-08-07T08:09:38;15.20;99.90
4461;DHT22;2243;48.812;9.232;2023-08-07T08:12:10;15.20;99.90
4461;DHT22;2243;48.812;9.232;2023-08-07T08:14:41;15.20;99.90
4461;DHT22;2243;48.812;9.232;2023-08-07T08:17:25;15.30;99.90
4461;DHT22;2243;48.812;9.232;2023-08-07T08:19:56;15.30;99.90
4461;DHT22;2243;48.812;9.232;2023-08-07T08:22:27;15.30;99.90
4461;DHT22;2243;48.812;9.232;2023-08-07T08:24:58;15.30;99.90
4461;DHT22;2243;48.812;9.232;2023-08-07T08:27:29;15.30;99.90
4461;DHT22;2243;48.812;9.232;2023-08-07T08:30:03;15.30;99.90
4461;DHT22;2243;48.812;9.232;2023-08-07T08:32:34;15.30;99.90
4461;DHT22;2243;48.812;9.232;2023-08-07T08:35:06;15.30;99.90
4461;DHT22;2243;48.812;9.232;2023-08-07T08:37:37;15.30;99.90
4461;DHT22;2243;48.812;9.232;2023-08-07T08:40:09;15.30;99.90
4461;DHT22;2243;48.812;9.232;2023-08-07T08:42:49;15.40;99.90
4461;DHT22;2243;48.812;9.232;2023-08-07T08:45:25;15.40;99.90
4461;DHT22;2243;48.812;9.232;2023-08-07T08:48:01;15.40;99.90
4461;DHT22;2243;48.812;9.232;2023-08-07T08:50:35;15.50;99.90
4461;DHT22;2243;48.812;9.232;2023-08-07T08:53:07;15.60;99.90
4461;DHT22;2243;48.812;9.232;2023-08-07T08:55:39;15.70;99.90
4461;DHT22;2243;48.812;9.232;2023-08-07T08:58:15;15.70;99.90
4461;DHT22;2243;48.812;9.232;2023-08-07T09:00:47;15.80;99.90
4461;DHT22;2243;48.812;9.232;2023-08-07T09:03:19;15.90;99.90
4461;DHT22;2243;48.812;9.232;2023-08-07T09:05:53;16.00;99.90
4461;DHT22;2243;48.812;9.232;2023-08-07T09:08:27;16.10;99.90
4461;DHT22;2243;48.812;9.232;2023-08-07T09:11:00;16.10;99.90
4461;DHT22;2243;48.812;9.232;2023-08-07T09:13:33;16.10;99.90
4461;DHT22;2243;48.812;9.232;2023-08-07T09:16:08;16.20;99.90
4461;DHT22;2243;48.812;9.232;2023-08-07T09:18:39;16.30;99.90
4461;DHT22;2243;48.812;9.232;2023-08-07T09:21:11;16.40;99.90
4461;DHT22;2243;48.812;9.232;2023-08-07T09:23:43;16.40;99.90
4461;DHT22;2243;48.812;9.232;2023-08-07T09:26:21;16.40;99.90
4461;DHT22;2243;48.812;9.232;2023-08-07T09:28:54;16.30;99.90
4461;DHT22;2243;48.812;9.232;2023-08-07T09:31:26;16.30;99.90
4461;DHT22;2243;48.812;9.232;2023-08-07T09:34:04;16.40;99.90
4461;DHT22;2243;48.812;9.232;2023-08-07T09:36:35;16.40;99.90
4461;DHT22;2243;48.812;9.232;2023-08-07T09:39:06;16.50;99.90
4461;DHT22;2243;48.812;9.232;2023-08-07T09:41:37;16.50;99.90
4461;DHT22;2243;48.812;9.232;2023-08-07T09:44:09;16.60;99.90
4461;DHT22;2243;48.812;9.232;2023-08-07T09:46:42;16.70;99.90
4461;DHT22;2243;48.812;9.232;2023-08-07T09:49:14;16.80;99.90
4461;DHT22;2243;48.812;9.232;2023-08-07T09:51:47;16.60;99.90
4461;DHT22;2243;48.812;9.232;2023-08-07T09:54:20;16.50;99.90
4461;DHT22;2243;48.812;9.232;2023-08-07T09:56:55;16.50;99.90
4461;DHT22;2243;48.812;9.232;2023-08-07T09:59:29;16.50;99.80
4461;DHT22;2243;48.812;9.232;2023-08-07T10:02:01;16.50;99.90
4461;DHT22;2243;48.812;9.232;2023-08-07T10:04:32;16.50;99.90
4461;DHT22;2243;48.812;9.232;2023-08-07T10:07:04;16.40;99.90
4461;DHT22;2243;48.812;9.232;2023-08-07T10:09:35;16.50;99.90
4461;DHT22;2243;48.812;9.232;2023-08-07T10:12:07;16.60;99.90
4461;DHT22;2243;48.812;9.232;2023-08-07T10:14:38;16.70;99.90
4461;DHT22;2243;48.812;9.232;2023-08-07T10:17:11;16.80;99.90
4461;DHT22;2243;48.812;9.232;2023-08-07T10:19:43;16.70;99.70
4461;DHT22;2243;48.812;9.232;2023-08-07T10:22:25;16.70;99.30
4461;DHT22;2243;48.812;9.232;2023-08-07T10:25:00;16.80;99.80
4461;DHT22;2243;48.812;9.232;2023-08-07T10:27:38;16.90;99.60
4461;DHT22;2243;48.812;9.232;2023-08-07T10:30:12;16.90;98.80
4461;DHT22;2243;48.812;9.232;2023-08-07T10:32:45;16.90;98.80
4461;DHT22;2243;48.812;9.232;2023-08-07T10:35:30;17.00;98.90
4461;DHT22;2243;48.812;9.232;2023-08-07T10:38:08;16.90;98.90
4461;DHT22;2243;48.812;9.232;2023-08-07T10:40:58;16.90;99.30
4461;DHT22;2243;48.812;9.232;2023-08-07T10:43:47;16.80;99.50
4461;DHT22;2243;48.812;9.232;2023-08-07T10:46:22;16.80;99.50
4461;DHT22;2243;48.812;9.232;2023-08-07T10:48:55;16.80;99.60
4461;DHT22;2243;48.812;9.232;2023-08-07T10:51:30;16.80;99.10
4461;DHT22;2243;48.812;9.232;2023-08-07T10:54:04;16.80;99.20
4461;DHT22;2243;48.812;9.232;2023-08-07T10:56:35;16.80;99.30
4461;DHT22;2243;48.812;9.232;2023-08-07T10:59:14;16.80;99.20
4461;DHT22;2243;48.812;9.232;2023-08-07T11:01:51;16.90;99.40
4461;DHT22;2243;48.812;9.232;2023-08-07T11:04:24;17.00;99.30
4461;DHT22;2243;48.812;9.232;2023-08-07T11:06:56;17.10;99.10
4461;DHT22;2243;48.812;9.232;2023-08-07T11:09:27;17.20;98.60
4461;DHT22;2243;48.812;9.232;2023-08-07T11:11:58;17.20;98.20
4461;DHT22;2243;48.812;9.232;2023-08-07T11:14:30;17.20;98.30
4461;DHT22;2243;48.812;9.232;2023-08-07T11:17:01;17.20;98.40
4461;DHT22;2243;48.812;9.232;2023-08-07T11:19:33;17.20;98.40
4461;DHT22;2243;48.812;9.232;2023-08-07T11:22:04;17.10;98.10
4461;DHT22;2243;48.812;9.232;2023-08-07T11:24:35;17.00;98.00
4461;DHT22;2243;48.812;9.232;2023-08-07T11:27:08;17.00;98.30
4461;DHT22;2243;48.812;9.232;2023-08-07T11:29:39;17.00;98.50
4461;DHT22;2243;48.812;9.232;2023-08-07T11:32:10;17.00;98.70
4461;DHT22;2243;48.812;9.232;2023-08-07T11:34:48;17.00;98.90
4461;DHT22;2243;48.812;9.232;2023-08-07T11:37:20;17.00;99.10
4461;DHT22;2243;48.812;9.232;2023-08-07T11:39:51;17.00;99.30
4461;DHT22;2243;48.812;9.232;2023-08-07T11:42:22;17.10;99.50
4461;DHT22;2243;48.812;9.232;2023-08-07T11:44:53;17.10;99.20
4461;DHT22;2243;48.812;9.232;2023-08-07T11:47:24;17.20;99.00
4461;DHT22;2243;48.812;9.232;2023-08-07T11:49:55;17.10;99.00
4461;DHT22;2243;48.812;9.232;2023-08-07T11:52:26;17.10;99.50
4461;DHT22;2243;48.812;9.232;2023-08-07T11:54:57;17.00;99.50
4461;DHT22;2243;48.812;9.232;2023-08-07T11:57:29;16.90;99.80
4461;DHT22;2243;48.812;9.232;2023-08-07T12:00:00;16.80;99.90
4461;DHT22;2243;48.812;9.232;2023-08-07T12:02:35;16.80;99.90
4461;DHT22;2243;48.812;9.232;2023-08-07T12:05:08;16.80;99.90
4461;DHT22;2243;48.812;9.232;2023-08-07T12:07:41;16.80;99.90
4461;DHT22;2243;48.812;9.232;2023-08-07T12:10:12;16.70;99.90
4461;DHT22;2243;48.812;9.232;2023-08-07T12:12:43;16.70;99.90
4461;DHT22;2243;48.812;9.232;2023-08-07T12:15:16;16.80;99.90
4461;DHT22;2243;48.812;9.232;2023-08-07T12:17:47;16.80;99.90
4461;DHT22;2243;48.812;9.232;2023-08-07T12:20:18;16.80;99.90
4461;DHT22;2243;48.812;9.232;2023-08-07T12:22:49;16.80;99.90
4461;DHT22;2243;48.812;9.232;2023-08-07T12:25:20;16.90;99.90
4461;DHT22;2243;48.812;9.232;2023-08-07T12:27:51;16.90;99.90
4461;DHT22;2243;48.812;9.232;2023-08-07T12:30:23;17.00;99.90
4461;DHT22;2243;48.812;9.232;2023-08-07T12:32:54;17.10;99.90
4461;DHT22;2243;48.812;9.232;2023-08-07T12:35:25;17.20;99.90
4461;DHT22;2243;48.812;9.232;2023-08-07T12:37:56;17.30;99.90
4461;DHT22;2243;48.812;9.232;2023-08-07T12:40:27;17.30;99.90
4461;DHT22;2243;48.812;9.232;2023-08-07T12:43:01;17.40;99.90
4461;DHT22;2243;48.812;9.232;2023-08-07T12:45:33;17.30;99.90
4461;DHT22;2243;48.812;9.232;2023-08-07T12:48:07;17.30;99.90
4461;DHT22;2243;48.812;9.232;2023-08-07T12:50:39;17.20;99.90
4461;DHT22;2243;48.812;9.232;2023-08-07T12:53:10;17.20;99.90
4461;DHT22;2243;48.812;9.232;2023-08-07T12:55:41;17.30;99.90
4461;DHT22;2243;48.812;9.232;2023-08-07T12:58:12;17.30;99.90
4461;DHT22;2243;48.812;9.232;2023-08-07T13:00:43;17.50;99.90
4461;DHT22;2243;48.812;9.232;2023-08-07T13:03:14;17.50;99.90
4461;DHT22;2243;48.812;9.232;2023-08-07T13:05:45;17.60;99.90
4461;DHT22;2243;48.812;9.232;2023-08-07T13:08:16;17.70;99.90
4461;DHT22;2243;48.812;9.232;2023-08-07T13:10:47;17.70;99.90
4461;DHT22;2243;48.812;9.232;2023-08-07T13:13:20;17.70;99.90
4461;DHT22;2243;48.812;9.232;2023-08-07T13:15:51;17.60;99.90
4461;DHT22;2243;48.812;9.232;2023-08-07T13:18:25;17.70;99.90
4461;DHT22;2243;48.812;9.232;2023-08-07T13:20:56;17.80;99.90
4461;DHT22;2243;48.812;9.232;2023-08-07T13:23:27;17.80;99.90
4461;DHT22;2243;48.812;9.232;2023-08-07T13:25:58;17.90;99.90
4461;DHT22;2243;48.812;9.232;2023-08-07T13:28:29;17.90;99.90
4461;DHT22;2243;48.812;9.232;2023-08-07T13:31:00;17.90;99.90
4461;DHT22;2243;48.812;9.232;2023-08-07T13:33:32;17.80;99.90
4461;DHT22;2243;48.812;9.232;2023-08-07T13:36:03;17.80;99.90
4461;DHT22;2243;48.812;9.232;2023-08-07T13:38:34;17.90;99.90
4461;DHT22;2243;48.812;9.232;2023-08-07T13:41:05;18.00;99.90
4461;DHT22;2243;48.812;9.232;2023-08-07T13:43:36;18.10;99.90
4461;DHT22;2243;48.812;9.232;2023-08-07T13:46:08;18.20;99.90
4461;DHT22;2243;48.812;9.232;2023-08-07T13:48:39;18.40;99.30
4461;DHT22;2243;48.812;9.232;2023-08-07T13:51:10;18.60;99.70
4461;DHT22;2243;48.812;9.232;2023-08-07T13:53:42;18.70;98.70
4461;DHT22;2243;48.812;9.232;2023-08-07T13:56:13;18.70;98.40
4461;DHT22;2243;48.812;9.232;2023-08-07T13:58:44;18.60;98.70
4461;DHT22;2243;48.812;9.232;2023-08-07T14:01:15;18.60;98.60
4461;DHT22;2243;48.812;9.232;2023-08-07T14:03:46;18.60;98.60
4461;DHT22;2243;48.812;9.232;2023-08-07T14:06:17;18.60;98.60
4461;DHT22;2243;48.812;9.232;2023-08-07T14:08:48;18.80;98.40
4461;DHT22;2243;48.812;9.232;2023-08-07T14:11:19;18.80;98.30
4461;DHT22;2243;48.812;9.232;2023-08-07T14:13:51;18.80;98.10
4461;DHT22;2243;48.812;9.232;2023-08-07T14:16:22;18.80;98.60
4461;DHT22;2243;48.812;9.232;2023-08-07T14:18:53;18.80;98.40
4461;DHT22;2243;48.812;9.232;2023-08-07T14:21:24;18.80;98.40
4461;DHT22;2243;48.812;9.232;2023-08-07T14:23:55;18.90;98.00
4461;DHT22;2243;48.812;9.232;2023-08-07T14:26:26;19.20;97.60
4461;DHT22;2243;48.812;9.232;2023-08-07T14:28:57;19.40;96.80
4461;DHT22;2243;48.812;9.232;2023-08-07T14:31:28;19.40;96.20
4461;DHT22;2243;48.812;9.232;2023-08-07T14:33:59;19.20;96.40
4461;DHT22;2243;48.812;9.232;2023-08-07T14:36:30;19.10;96.50
4461;DHT22;2243;48.812;9.232;2023-08-07T14:39:02;18.90;97.00
4461;DHT22;2243;48.812;9.232;2023-08-07T14:41:33;18.70;97.40
4461;DHT22;2243;48.812;9.232;2023-08-07T14:44:04;18.60;97.60
4461;DHT22;2243;48.812;9.232;2023-08-07T14:46:35;18.60;97.60
4461;DHT22;2243;48.812;9.232;2023-08-07T14:49:06;18.70;97.50
4461;DHT22;2243;48.812;9.232;2023-08-07T14:51:37;19.00;97.70
4461;DHT22;2243;48.812;9.232;2023-08-07T14:54:08;19.30;96.70
4461;DHT22;2243;48.812;9.232;2023-08-07T14:56:39;19.70;96.60
4461;DHT22;2243;48.812;9.232;2023-08-07T14:59:10;20.00;95.90
4461;DHT22;2243;48.812;9.232;2023-08-07T15:01:40;20.20;95.50
4461;DHT22;2243;48.812;9.232;2023-08-07T15:04:11;20.20;95.40
4461;DHT22;2243;48.812;9.232;2023-08-07T15:06:42;20.10;95.30
4461;DHT22;2243;48.812;9.232;2023-08-07T15:09:17;19.80;95.80
4461;DHT22;2243;48.812;9.232;2023-08-07T15:11:50;19.60;96.10
4461;DHT22;2243;48.812;9.232;2023-08-07T15:14:21;19.30;96.70
4461;DHT22;2243;48.812;9.232;2023-08-07T15:16:52;19.10;97.20
4461;DHT22;2243;48.812;9.232;2023-08-07T15:19:23;19.00;97.10
4461;DHT22;2243;48.812;9.232;2023-08-07T15:21:53;18.80;96.80
4461;DHT22;2243;48.812;9.232;2023-08-07T15:24:25;18.80;96.80
4461;DHT22;2243;48.812;9.232;2023-08-07T15:26:56;18.60;97.40
4461;DHT22;2243;48.812;9.232;2023-08-07T15:29:28;18.60;97.40
4461;DHT22;2243;48.812;9.232;2023-08-07T15:31:59;18.50;97.40
4461;DHT22;2243;48.812;9.232;2023-08-07T15:34:31;18.50;97.10
4461;DHT22;2243;48.812;9.232;2023-08-07T15:37:02;18.50;96.80
4461;DHT22;2243;48.812;9.232;2023-08-07T15:39:34;18.50;96.80
4461;DHT22;2243;48.812;9.232;2023-08-07T15:42:05;18.50;96.90
4461;DHT22;2243;48.812;9.232;2023-08-07T15:44:36;18.70;97.10
4461;DHT22;2243;48.812;9.232;2023-08-07T15:47:09;19.10;96.70
4461;DHT22;2243;48.812;9.232;2023-08-07T15:49:40;19.40;96.60
4461;DHT22;2243;48.812;9.232;2023-08-07T15:52:15;19.70;95.90
4461;DHT22;2243;48.812;9.232;2023-08-07T15:54:46;20.10;96.10
4461;DHT22;2243;48.812;9.232;2023-08-07T15:57:17;20.30;95.90
4461;DHT22;2243;48.812;9.232;2023-08-07T15:59:48;20.40;95.90
4461;DHT22;2243;48.812;9.232;2023-08-07T16:02:19;20.40;95.80
4461;DHT22;2243;48.812;9.232;2023-08-07T16:04:50;20.10;94.70
4461;DHT22;2243;48.812;9.232;2023-08-07T16:07:21;19.90;95.00
4461;DHT22;2243;48.812;9.232;2023-08-07T16:09:52;19.70;95.50
4461;DHT22;2243;48.812;9.232;2023-08-07T16:12:23;19.60;96.00
4461;DHT22;2243;48.812;9.232;2023-08-07T16:14:54;19.60;96.10
4461;DHT22;2243;48.812;9.232;2023-08-07T16:17:29;19.60;96.20
4461;DHT22;2243;48.812;9.232;2023-08-07T16:20:00;19.70;96.20
4461;DHT22;2243;48.812;9.232;2023-08-07T16:22:31;19.90;95.80
4461;DHT22;2243;48.812;9.232;2023-08-07T16:25:03;20.30;95.70
4461;DHT22;2243;48.812;9.232;2023-08-07T16:27:38;20.40;95.30
4461;DHT22;2243;48.812;9.232;2023-08-07T16:30:10;20.70;95.20
4461;DHT22;2243;48.812;9.232;2023-08-07T16:32:42;20.90;95.10